PWSweather.com
Personal Weather Stations
Station Observations
WATERF01
WaterfordIE

WaterfordIE

Lat: 52.2412507, Lon: -7.1414691

Elevation: 65

Station Type: Davis Vantage Vue

Latest ConditionsUpdated 1:50:00 PM GMT Friday, Jul 29, 2016
Currently Today's Max Today's Min Today's Average
Temperature 63.8°F17.7°C 63.8°F17.7°C 59.9°F15.5°C 60.9°F16.1°C
Dew Point 56.1°F13.4°C 58.4°F14.7°C 55.5°F13.1°C 56.7°F13.7°C
Winds 2.3 mph NW3.7 kmh NW 8.1 mph NW13.0 kmh NW - 3.3 mph 5.3 kmh
Wind Gusts 6.9 mph11.1 kmh 12.7 mph20.4 kmh - -
Humidity 76% 90% 76% 86%
Pressure 29.90 in1012.5 mb 29.90 in1012.5 mb 29.82 in1009.8 mb -
Hour Temp Dew Point Humidity Winds Wind Gusts Pressure Precip Precip Rate Daily Precip Total
01:50 PM 63.8°F17.7°C 56.1°F13.4°C 76% 2.3 mph NW3.7 kmh NW 6.9 mph11.1 kmh 29.90 in1012.5 mb - 0.00 in0.0 mm 0.00 in0.0 mm
01:40 PM 63.2°F17.3°C 55.5°F13.1°C 76% 8.1 mph NW13.0 kmh NW 11.5 mph18.5 kmh 29.90 in1012.5 mb - 0.00 in0.0 mm 0.00 in0.0 mm
01:30 PM 63.1°F17.3°C 55.8°F13.2°C 77% 4.6 mph NNW7.4 kmh NNW 9.2 mph14.8 kmh 29.90 in1012.5 mb - 0.00 in0.0 mm 0.00 in0.0 mm
01:20 PM 62.6°F17.0°C 55.7°F13.2°C 78% 3.5 mph NW5.6 kmh NW 8.1 mph13.0 kmh 29.90 in1012.5 mb - 0.00 in0.0 mm 0.00 in0.0 mm
01:10 PM 62.4°F16.9°C 55.8°F13.2°C 79% 4.6 mph NW7.4 kmh NW 8.1 mph13.0 kmh 29.90 in1012.5 mb - 0.00 in0.0 mm 0.00 in0.0 mm
01:00 PM 62.1°F16.7°C 55.9°F13.3°C 80% 4.6 mph NNW7.4 kmh NNW 9.2 mph14.8 kmh 29.90 in1012.5 mb - 0.00 in0.0 mm 0.00 in0.0 mm
12:50 PM 62.0°F16.7°C 55.8°F13.2°C 80% 6.9 mph NNW11.1 kmh NNW 11.5 mph18.5 kmh 29.90 in1012.5 mb - 0.00 in0.0 mm 0.00 in0.0 mm
12:40 PM 61.7°F16.5°C 55.8°F13.2°C 81% 5.8 mph NNW9.3 kmh NNW 11.5 mph18.5 kmh 29.89 in1012.2 mb - 0.00 in0.0 mm 0.00 in0.0 mm
12:30 PM 62.3°F16.8°C 56.0°F13.3°C 80% 3.5 mph NNW5.6 kmh NNW 6.9 mph11.1 kmh 29.89 in1012.2 mb - 0.00 in0.0 mm 0.00 in0.0 mm
12:20 PM 62.6°F17.0°C 56.4°F13.6°C 80% 3.5 mph NW5.6 kmh NW 8.1 mph13.0 kmh 29.89 in1012.2 mb - 0.00 in0.0 mm 0.00 in0.0 mm
12:10 PM 62.3°F16.8°C 56.0°F13.3°C 80% 4.6 mph NW7.4 kmh NW 6.9 mph11.1 kmh 29.89 in1012.2 mb - 0.00 in0.0 mm 0.00 in0.0 mm
12:00 PM 62.3°F16.8°C 56.4°F13.6°C 81% 8.1 mph NNW13.0 kmh NNW 12.7 mph20.4 kmh 29.89 in1012.2 mb - 0.00 in0.0 mm 0.00 in0.0 mm
11:50 AM 62.1°F16.7°C 56.5°F13.6°C 82% 5.8 mph NNW9.3 kmh NNW 9.2 mph14.8 kmh 29.89 in1012.2 mb - 0.00 in0.0 mm 0.00 in0.0 mm
11:40 AM 61.6°F16.4°C 56.1°F13.4°C 82% 6.9 mph NW11.1 kmh NW 11.5 mph18.5 kmh 29.89 in1012.2 mb - 0.00 in0.0 mm 0.00 in0.0 mm
11:30 AM 61.6°F16.4°C 56.4°F13.6°C 83% 6.9 mph NNW11.1 kmh NNW 11.5 mph18.5 kmh 29.89 in1012.2 mb - 0.00 in0.0 mm 0.00 in0.0 mm
11:20 AM 61.6°F16.4°C 56.4°F13.6°C 83% 5.8 mph NW9.3 kmh NW 11.5 mph18.5 kmh 29.88 in1011.9 mb - 0.00 in0.0 mm 0.00 in0.0 mm
11:10 AM 61.6°F16.4°C 56.4°F13.6°C 83% 8.1 mph NW13.0 kmh NW 12.7 mph20.4 kmh 29.88 in1011.9 mb - 0.00 in0.0 mm 0.00 in0.0 mm
11:00 AM 61.4°F16.3°C 56.5°F13.6°C 84% 4.6 mph NW7.4 kmh NW 5.8 mph9.3 kmh 29.88 in1011.9 mb - 0.00 in0.0 mm 0.00 in0.0 mm
10:50 AM 61.3°F16.3°C 56.7°F13.7°C 85% 6.9 mph NNW11.1 kmh NNW 11.5 mph18.5 kmh 29.87 in1011.5 mb - 0.00 in0.0 mm 0.00 in0.0 mm
10:40 AM 61.1°F16.2°C 57.2°F14.0°C 87% 6.9 mph NW11.1 kmh NW 11.5 mph18.5 kmh 29.87 in1011.5 mb - 0.00 in0.0 mm 0.00 in0.0 mm
10:30 AM 60.9°F16.1°C 57.0°F13.9°C 87% 4.6 mph NW7.4 kmh NW 8.1 mph13.0 kmh 29.87 in1011.5 mb - 0.00 in0.0 mm 0.00 in0.0 mm
10:20 AM 61.8°F16.6°C 57.6°F14.2°C 86% 5.8 mph NNW9.3 kmh NNW 9.2 mph14.8 kmh 29.87 in1011.5 mb - 0.00 in0.0 mm 0.00 in0.0 mm
10:10 AM 62.4°F16.9°C 58.2°F14.6°C 86% 6.9 mph NW11.1 kmh NW 11.5 mph18.5 kmh 29.86 in1011.2 mb - 0.00 in0.0 mm 0.00 in0.0 mm
10:00 AM 62.6°F17.0°C 58.4°F14.7°C 86% 8.1 mph NW13.0 kmh NW 11.5 mph18.5 kmh 29.86 in1011.2 mb - 0.00 in0.0 mm 0.00 in0.0 mm
09:50 AM 62.6°F17.0°C 58.3°F14.6°C 86% 5.8 mph NW9.3 kmh NW 9.2 mph14.8 kmh 29.86 in1011.2 mb - 0.00 in0.0 mm 0.00 in0.0 mm
09:40 AM 62.1°F16.7°C 58.2°F14.6°C 87% 4.6 mph NW7.4 kmh NW 8.1 mph13.0 kmh 29.86 in1011.2 mb - 0.00 in0.0 mm 0.00 in0.0 mm
09:30 AM 61.8°F16.6°C 57.9°F14.4°C 87% 5.8 mph WNW9.3 kmh WNW 9.2 mph14.8 kmh 29.86 in1011.2 mb - 0.00 in0.0 mm 0.00 in0.0 mm
09:20 AM 61.7°F16.5°C 58.1°F14.5°C 88% 3.5 mph NW5.6 kmh NW 8.1 mph13.0 kmh 29.86 in1011.2 mb - 0.00 in0.0 mm 0.00 in0.0 mm
09:10 AM 61.4°F16.3°C 57.8°F14.3°C 88% 6.9 mph WNW11.1 kmh WNW 11.5 mph18.5 kmh 29.86 in1011.2 mb - 0.00 in0.0 mm 0.00 in0.0 mm
09:00 AM 61.3°F16.3°C 58.0°F14.4°C 89% 4.6 mph WNW7.4 kmh WNW 6.9 mph11.1 kmh 29.85 in1010.8 mb - 0.00 in0.0 mm 0.00 in0.0 mm
08:50 AM 61.1°F16.2°C 57.8°F14.3°C 89% 4.6 mph NW7.4 kmh NW 8.1 mph13.0 kmh 29.85 in1010.8 mb - 0.00 in0.0 mm 0.00 in0.0 mm
08:40 AM 61.1°F16.2°C 57.5°F14.2°C 88% 5.8 mph WNW9.3 kmh WNW 9.2 mph14.8 kmh 29.85 in1010.8 mb - 0.00 in0.0 mm 0.00 in0.0 mm
08:30 AM 60.8°F16.0°C 57.5°F14.2°C 89% 2.3 mph WNW3.7 kmh WNW 5.8 mph9.3 kmh 29.85 in1010.8 mb - 0.00 in0.0 mm 0.00 in0.0 mm
08:20 AM 60.8°F16.0°C 57.2°F14.0°C 88% 5.8 mph WNW9.3 kmh WNW 8.1 mph13.0 kmh 29.85 in1010.8 mb - 0.00 in0.0 mm 0.00 in0.0 mm
08:10 AM 60.7°F15.9°C 57.2°F14.0°C 88% 3.5 mph WNW5.6 kmh WNW 8.1 mph13.0 kmh 29.85 in1010.8 mb - 0.00 in0.0 mm 0.00 in0.0 mm
08:00 AM 60.7°F15.9°C 57.1°F13.9°C 88% 4.6 mph NW7.4 kmh NW 5.8 mph9.3 kmh 29.84 in1010.5 mb - 0.00 in0.0 mm 0.00 in0.0 mm
07:50 AM 60.6°F15.9°C 57.1°F13.9°C 88% 3.5 mph WNW5.6 kmh WNW 5.8 mph9.3 kmh 29.84 in1010.5 mb - 0.00 in0.0 mm 0.00 in0.0 mm
07:40 AM 60.6°F15.9°C 57.0°F13.9°C 88% 1.2 mph WNW1.9 kmh WNW 2.3 mph3.7 kmh 29.84 in1010.5 mb - 0.00 in0.0 mm 0.00 in0.0 mm
07:30 AM 60.5°F15.8°C 56.9°F13.8°C 88% 1.2 mph W1.9 kmh W 4.6 mph7.4 kmh 29.84 in1010.5 mb - 0.00 in0.0 mm 0.00 in0.0 mm
07:20 AM 60.4°F15.8°C 56.8°F13.8°C 88% 3.5 mph WNW5.6 kmh WNW 6.9 mph11.1 kmh 29.84 in1010.5 mb - 0.00 in0.0 mm 0.00 in0.0 mm
07:10 AM 60.4°F15.8°C 56.5°F13.6°C 87% 4.6 mph NW7.4 kmh NW 6.9 mph11.1 kmh 29.84 in1010.5 mb - 0.00 in0.0 mm 0.00 in0.0 mm
07:00 AM 60.3°F15.7°C 56.4°F13.6°C 87% 2.3 mph WNW3.7 kmh WNW 5.8 mph9.3 kmh 29.84 in1010.5 mb - 0.00 in0.0 mm 0.00 in0.0 mm
06:50 AM 60.3°F15.7°C 56.4°F13.6°C 87% 3.5 mph WNW5.6 kmh WNW 6.9 mph11.1 kmh 29.84 in1010.5 mb - 0.00 in0.0 mm 0.00 in0.0 mm
06:40 AM 60.3°F15.7°C 56.4°F13.6°C 87% 3.5 mph WNW5.6 kmh WNW 5.8 mph9.3 kmh 29.83 in1010.2 mb - 0.00 in0.0 mm 0.00 in0.0 mm
06:30 AM 60.3°F15.7°C 56.4°F13.6°C 87% 4.6 mph WNW7.4 kmh WNW 6.9 mph11.1 kmh 29.83 in1010.2 mb - 0.00 in0.0 mm 0.00 in0.0 mm
06:20 AM 60.3°F15.7°C 56.4°F13.6°C 87% 2.3 mph WNW3.7 kmh WNW 5.8 mph9.3 kmh 29.83 in1010.2 mb - 0.00 in0.0 mm 0.00 in0.0 mm
06:10 AM 60.2°F15.7°C 56.4°F13.6°C 87% 2.3 mph W3.7 kmh W 5.8 mph9.3 kmh 29.83 in1010.2 mb - 0.00 in0.0 mm 0.00 in0.0 mm
06:00 AM 60.1°F15.6°C 56.2°F13.4°C 87% 1.2 mph W1.9 kmh W 2.3 mph3.7 kmh 29.83 in1010.2 mb - 0.00 in0.0 mm 0.00 in0.0 mm
05:50 AM 60.0°F15.6°C 56.1°F13.4°C 87% 1.2 mph W1.9 kmh W 2.3 mph3.7 kmh 29.83 in1010.2 mb - 0.00 in0.0 mm 0.00 in0.0 mm
05:40 AM 60.0°F15.6°C 56.4°F13.6°C 88% 1.2 mph W1.9 kmh W 4.6 mph7.4 kmh 29.83 in1010.2 mb - 0.00 in0.0 mm 0.00 in0.0 mm
05:30 AM 60.1°F15.6°C 56.2°F13.4°C 87% Calm Calm -- 29.83 in1010.2 mb - 0.00 in0.0 mm 0.00 in0.0 mm
05:20 AM 60.0°F15.6°C 56.1°F13.4°C 87% Calm Calm 2.3 mph3.7 kmh 29.82 in1009.8 mb - 0.00 in0.0 mm 0.00 in0.0 mm
05:10 AM 60.0°F15.6°C 56.1°F13.4°C 87% 2.3 mph NW3.7 kmh NW 5.8 mph9.3 kmh 29.82 in1009.8 mb - 0.00 in0.0 mm 0.00 in0.0 mm
05:00 AM 60.0°F15.6°C 56.1°F13.4°C 87% 1.2 mph W1.9 kmh W 6.9 mph11.1 kmh 29.83 in1010.2 mb - 0.00 in0.0 mm 0.00 in0.0 mm
04:50 AM 60.1°F15.6°C 56.2°F13.4°C 87% 3.5 mph W5.6 kmh W 5.8 mph9.3 kmh 29.82 in1009.8 mb - 0.00 in0.0 mm 0.00 in0.0 mm
04:40 AM 60.1°F15.6°C 56.2°F13.4°C 87% 2.3 mph WNW3.7 kmh WNW 2.3 mph3.7 kmh 29.82 in1009.8 mb - 0.00 in0.0 mm 0.00 in0.0 mm
04:30 AM 59.9°F15.5°C 56.3°F13.5°C 88% 2.3 mph W3.7 kmh W 5.8 mph9.3 kmh 29.82 in1009.8 mb - 0.00 in0.0 mm 0.00 in0.0 mm
04:20 AM 60.0°F15.6°C 56.4°F13.6°C 88% Calm Calm -- 29.82 in1009.8 mb - 0.00 in0.0 mm 0.00 in0.0 mm
04:10 AM 59.9°F15.5°C 56.3°F13.5°C 88% 3.5 mph WNW5.6 kmh WNW 5.8 mph9.3 kmh 29.82 in1009.8 mb - 0.00 in0.0 mm 0.00 in0.0 mm
04:00 AM 60.1°F15.6°C 56.5°F13.6°C 88% Calm Calm -- 29.82 in1009.8 mb - 0.00 in0.0 mm 0.00 in0.0 mm
03:50 AM 60.3°F15.7°C 56.1°F13.4°C 86% Calm Calm -- 29.82 in1009.8 mb - 0.00 in0.0 mm 0.00 in0.0 mm
03:40 AM 60.2°F15.7°C 56.0°F13.3°C 86% 2.3 mph W3.7 kmh W 4.6 mph7.4 kmh 29.82 in1009.8 mb - 0.00 in0.0 mm 0.00 in0.0 mm
03:30 AM 60.1°F15.6°C 56.2°F13.4°C 87% 2.3 mph WNW3.7 kmh WNW 5.8 mph9.3 kmh 29.82 in1009.8 mb - 0.00 in0.0 mm 0.00 in0.0 mm
03:20 AM 59.9°F15.5°C 56.4°F13.6°C 88% 2.3 mph WNW3.7 kmh WNW 4.6 mph7.4 kmh 29.82 in1009.8 mb - 0.00 in0.0 mm 0.00 in0.0 mm
03:10 AM 60.0°F15.6°C 56.7°F13.7°C 89% Calm Calm -- 29.82 in1009.8 mb - 0.00 in0.0 mm 0.00 in0.0 mm
03:00 AM 59.9°F15.5°C 56.7°F13.7°C 89% Calm Calm -- 29.83 in1010.2 mb - 0.00 in0.0 mm 0.00 in0.0 mm
02:50 AM 59.9°F15.5°C 56.6°F13.7°C 89% Calm Calm -- 29.83 in1010.2 mb - 0.00 in0.0 mm 0.00 in0.0 mm
02:40 AM 59.9°F15.5°C 56.6°F13.7°C 89% Calm Calm -- 29.83 in1010.2 mb - 0.00 in0.0 mm 0.00 in0.0 mm
02:30 AM 59.9°F15.5°C 56.7°F13.7°C 89% Calm Calm -- 29.83 in1010.2 mb - 0.00 in0.0 mm 0.00 in0.0 mm
02:20 AM 60.0°F15.6°C 57.0°F13.9°C 90% 1.2 mph NW1.9 kmh NW 2.3 mph3.7 kmh 29.83 in1010.2 mb - 0.00 in0.0 mm 0.00 in0.0 mm
02:10 AM 60.0°F15.6°C 57.1°F13.9°C 90% 3.5 mph WNW5.6 kmh WNW 5.8 mph9.3 kmh 29.83 in1010.2 mb - 0.00 in0.0 mm 0.00 in0.0 mm
02:00 AM 60.0°F15.6°C 57.1°F13.9°C 90% Calm Calm 2.3 mph3.7 kmh 29.83 in1010.2 mb - 0.00 in0.0 mm 0.00 in0.0 mm
01:50 AM 60.0°F15.6°C 57.1°F13.9°C 90% 3.5 mph W5.6 kmh W 6.9 mph11.1 kmh 29.83 in1010.2 mb - 0.00 in0.0 mm 0.00 in0.0 mm
01:40 AM 60.0°F15.6°C 56.7°F13.7°C 89% 3.5 mph WNW5.6 kmh WNW 5.8 mph9.3 kmh 29.83 in1010.2 mb - 0.00 in0.0 mm 0.00 in0.0 mm
01:30 AM 60.2°F15.7°C 56.6°F13.7°C 88% 2.3 mph W3.7 kmh W 5.8 mph9.3 kmh 29.84 in1010.5 mb - 0.00 in0.0 mm 0.00 in0.0 mm
01:20 AM 60.5°F15.8°C 56.6°F13.7°C 87% 1.2 mph SW1.9 kmh SW 2.3 mph3.7 kmh 29.84 in1010.5 mb - 0.00 in0.0 mm 0.00 in0.0 mm
01:10 AM 60.5°F15.8°C 56.3°F13.5°C 86% Calm Calm -- 29.84 in1010.5 mb - 0.00 in0.0 mm 0.00 in0.0 mm
01:00 AM 60.4°F15.8°C 56.5°F13.6°C 87% 3.5 mph W5.6 kmh W 5.8 mph9.3 kmh 29.84 in1010.5 mb - 0.00 in0.0 mm 0.00 in0.0 mm
12:50 AM 60.3°F15.7°C 56.7°F13.7°C 88% Calm Calm 1.2 mph1.9 kmh 29.84 in1010.5 mb - 0.00 in0.0 mm 0.00 in0.0 mm
12:40 AM 60.4°F15.8°C 56.8°F13.8°C 88% Calm Calm -- 29.84 in1010.5 mb - 0.00 in0.0 mm 0.00 in0.0 mm
12:30 AM 60.5°F15.8°C 57.0°F13.9°C 88% 1.2 mph W1.9 kmh W 4.6 mph7.4 kmh 29.84 in1010.5 mb - 0.00 in0.0 mm 0.00 in0.0 mm
12:20 AM 60.6°F15.9°C 57.0°F13.9°C 88% 2.3 mph W3.7 kmh W 5.8 mph9.3 kmh 29.84 in1010.5 mb - 0.00 in0.0 mm 0.00 in0.0 mm
12:10 AM 60.5°F15.8°C 56.9°F13.8°C 88% 1.2 mph WNW1.9 kmh WNW 2.3 mph3.7 kmh 29.84 in1010.5 mb - 0.00 in0.0 mm 0.00 in0.0 mm
12:00 AM 60.5°F15.8°C 56.9°F13.8°C 88% 1.2 mph WNW1.9 kmh WNW 2.3 mph3.7 kmh 29.84 in1010.5 mb - 0.00 in0.0 mm 0.00 in0.0 mm